Thunder radar more information blitzortung!


Rain radar more information rain snow radar


Visit our other weather sites:

This is on of my
other sites

And another one, using WeatherLink Live

Information provided by my Davis Vantage Pro station



Nearby METAR Reports

   
EHVK - Volkel Rnlafb, Netherlands
Distance from station: SW 18 km
Updated: 11-08-2022 21:25
Clear  
Clear  
   Wind: NNE 5.6 km/h
Wind: NNE 5.6 km/h
Temperature: 25°C
Dew Point: 9°C
Humidity: 36%
Barometer: 1019 hPa
Clouds: Clear
Visibility: More than 10 km
Cloud details: Clear
EHVK 111925Z AUTO 03003KT 9999 NCD 25/09 Q1019 BLU
EDLV - Niederrhein, Germany
Distance from station: SE 25 km
Updated: 11-08-2022 21:20
Clear  
Clear  
   Wind: NE 5.6 km/h
Wind: NE 5.6 km/h
Temperature: 27°C
Dew Point: 9°C
Humidity: 32%
Barometer: 1019 hPa
Visibility: More than 10 km
Cloud details: Clear
EDLV 111920Z 05003KT 020V080 CAVOK 27/09 Q1019
EHDL - Deelen Rnlafb, Netherlands
Distance from station: N 35 km
Updated: 11-08-2022 21:25
Clear  
Clear  
   Wind: NE 9.3 km/h
Wind: NE 9.3 km/h
Temperature: 23°C
Dew Point: 11°C
Humidity: 47%
Barometer: 1020 hPa
Clouds: Clear
Visibility: More than 10 km
Cloud details: Clear
EHDL 111925Z AUTO 04005KT 9999 NCD 23/11 Q1020 BLU
EHEH - Eindhoven Rnlafb, Netherlands
Distance from station: SW 48 km
Updated: 11-08-2022 21:25
Clear  
Clear  
   Wind: NNE 9.3 km/h
Wind: NNE 9.3 km/h
Temperature: 25°C
Dew Point: 10°C
Humidity: 39%
Barometer: 1019 hPa
Clouds: Clear
Visibility: More than 10 km
Cloud details: Clear
EHEH 111925Z AUTO 03005KT 320V090 9999 NCD 25/10 Q1019 BLU NOSIG
EHGR - Gilze-Rijen Rnla, Netherlands
Distance from station: WSW 70 km
Updated: 11-08-2022 21:25
Clear  
Clear  
   Wind: NE 7.4 km/h
Wind: NE 7.4 km/h
Temperature: 25°C
Dew Point: 10°C
Humidity: 39%
Barometer: 1019 hPa
Clouds: Clear
Visibility: More than 10 km
Cloud details: Clear
EHGR 111925Z AUTO 05004KT 020V100 9999 NCD 25/10 Q1019 BLU
EBBL - Kleine-Brogel(Ba, Belgium
Distance from station: SSW 71 km
Updated: 11-08-2022 21:25
Clear  
Clear  
   Wind: NNE 5.6 km/h
Wind: NNE 5.6 km/h
Temperature: 24°C
Dew Point: 10°C
Humidity: 41%
Barometer: 1019 hPa
Clouds: Clear
Visibility: More than 10 km
Cloud details: Clear
EBBL 111925Z AUTO 03003KT 9999 NCD 24/10 Q1019 BLU

Script developed by  Saratoga-weather.org Adapted for the template by  Weerstation Leuven

You find our weather info also at:

UK Metoffice

WeatherCloud

AWEKAS

Citizen Weather Observer Program (CWOP)

Equipment we use:

Weather-station
Davis VP2 plus

Weather-program
Meteobridge

Davis VP2 plus

Meteobridge